createdAt,value
2023-02-26T00:01:20.923Z,96677.94
2023-02-26T00:06:26.309Z,96671.09
2023-02-26T00:11:31.792Z,96662.56
2023-02-26T00:16:37.477Z,96640.50
2023-02-26T00:21:41.966Z,96620.03
2023-02-26T00:26:46.764Z,96613.09
2023-02-26T00:31:51.107Z,96599.78
2023-02-26T00:37:11.744Z,96584.16
2023-02-26T00:42:17.335Z,96576.56
2023-02-26T00:47:30.839Z,96569.34
2023-02-26T00:52:40.540Z,96541.84
2023-02-26T00:57:45.410Z,96541.59
2023-02-26T01:02:48.926Z,96545.09
2023-02-26T01:08:01.261Z,96564.09
2023-02-26T01:13:06.980Z,96548.41
2023-02-26T01:18:15.579Z,96542.91
2023-02-26T01:23:24.522Z,96522.06
2023-02-26T01:28:30.158Z,96520.97
2023-02-26T01:33:42.207Z,96514.41
2023-02-26T01:38:54.772Z,96508.91
2023-02-26T01:44:06.347Z,96489.63
2023-02-26T01:49:14.969Z,96493.47
2023-02-26T01:54:21.888Z,96489.66
2023-02-26T01:59:26.930Z,96488.94
2023-02-26T02:04:30.204Z,96476.25
2023-02-26T02:09:33.773Z,96472.16
2023-02-26T02:14:49.620Z,96459.69
2023-02-26T02:20:27.827Z,96455.06
2023-02-26T02:25:56.042Z,96443.59
2023-02-26T02:31:09.708Z,96438.69
2023-02-26T02:36:20.369Z,96456.16
2023-02-26T02:41:28.950Z,96439.06
2023-02-26T02:46:38.266Z,96431.66
2023-02-26T02:51:48.619Z,96437.97
2023-02-26T02:56:56.628Z,96429.06
2023-02-26T03:02:08.409Z,96429.56
2023-02-26T03:07:12.351Z,96419.38
2023-02-26T03:12:16.079Z,96404.97
2023-02-26T03:17:28.783Z,96408.56
2023-02-26T03:22:40.378Z,96395.03
2023-02-26T03:27:49.501Z,96400.91
2023-02-26T03:33:00.805Z,96396.59
2023-02-26T03:38:09.310Z,96396.34
2023-02-26T03:43:19.471Z,96395.13
2023-02-26T03:48:28.787Z,96401.53
2023-02-26T03:53:38.097Z,96404.44
2023-02-26T03:58:41.543Z,96403.00
2023-02-26T04:03:50.424Z,96404.59
2023-02-26T04:08:53.992Z,96413.41
2023-02-26T04:13:57.665Z,96418.38
2023-02-26T04:19:02.547Z,96431.25
2023-02-26T04:24:05.927Z,96436.34
2023-02-26T04:29:09.283Z,96431.84
2023-02-26T04:34:14.236Z,96454.38
2023-02-26T04:39:17.631Z,96446.59
2023-02-26T04:44:20.967Z,96466.00
2023-02-26T04:49:25.774Z,96466.59
2023-02-26T04:54:29.140Z,96476.56
2023-02-26T04:59:32.662Z,96473.13
2023-02-26T05:04:37.611Z,96494.38
2023-02-26T05:09:40.705Z,96500.41
2023-02-26T05:14:44.017Z,96500.06
2023-02-26T05:19:48.928Z,96520.47
2023-02-26T05:24:51.993Z,96530.91
2023-02-26T05:29:55.587Z,96540.47
2023-02-26T05:35:00.382Z,96543.63
2023-02-26T05:40:03.874Z,96556.91
2023-02-26T05:45:08.949Z,96572.75
2023-02-26T05:50:14.353Z,96568.03
2023-02-26T05:55:18.140Z,96587.09
2023-02-26T06:00:22.117Z,96598.94
2023-02-26T06:05:26.977Z,96596.34
2023-02-26T06:10:30.508Z,96604.66
2023-02-26T06:15:34.080Z,96609.47
2023-02-26T06:20:39.307Z,96621.91
2023-02-26T06:25:43.040Z,96625.06
2023-02-26T06:30:46.557Z,96632.63
2023-02-26T06:35:51.940Z,96630.25
2023-02-26T06:40:55.475Z,96638.31
2023-02-26T06:45:59.813Z,96643.47
2023-02-26T06:51:07.365Z,96650.94
2023-02-26T06:56:10.859Z,96659.88
2023-02-26T07:01:14.446Z,96671.13
2023-02-26T07:06:27.461Z,96678.53
2023-02-26T07:11:31.660Z,96678.13
2023-02-26T07:16:35.076Z,96682.28
2023-02-26T07:21:40.099Z,96689.41
2023-02-26T07:26:43.566Z,96698.31
2023-02-26T07:31:47.114Z,96697.03
2023-02-26T07:36:52.030Z,96704.59
2023-02-26T07:41:56.894Z,96708.97
2023-02-26T07:47:00.406Z,96706.34
2023-02-26T07:52:07.324Z,96715.56
2023-02-26T07:57:10.965Z,96723.91
2023-02-26T08:02:14.886Z,96730.34
2023-02-26T08:07:19.760Z,96732.34
2023-02-26T08:12:23.258Z,96755.03
2023-02-26T08:17:26.664Z,96755.69
2023-02-26T08:22:31.595Z,96781.28
2023-02-26T08:27:34.982Z,96794.78
2023-02-26T08:32:40.002Z,96793.13
2023-02-26T08:37:44.581Z,96789.91
2023-02-26T08:42:48.328Z,96789.53
2023-02-26T08:47:57.221Z,96830.84
2023-02-26T08:53:02.232Z,96833.19
2023-02-26T08:58:05.936Z,96831.44
2023-02-26T09:03:09.441Z,96834.69
2023-02-26T09:08:16.270Z,96840.28
2023-02-26T09:13:19.764Z,96851.59
2023-02-26T09:18:23.310Z,96865.41
2023-02-26T09:23:28.489Z,96876.25
2023-02-26T09:28:32.017Z,96874.06
2023-02-26T09:33:36.236Z,96869.09
2023-02-26T09:38:41.502Z,96894.22
2023-02-26T09:44:09.000Z,96884.69
2023-02-26T09:49:21.779Z,96886.53
2023-02-26T09:54:29.563Z,96893.91
2023-02-26T09:59:35.426Z,96905.69
2023-02-26T10:04:52.561Z,96908.78
2023-02-26T10:10:07.181Z,96912.44
2023-02-26T10:15:14.852Z,96911.94
2023-02-26T10:20:22.892Z,96905.09
2023-02-26T10:25:30.483Z,96908.84
2023-02-26T10:30:38.697Z,96918.06
2023-02-26T10:35:59.955Z,96926.38
2023-02-26T10:41:11.788Z,96946.09
2023-02-26T10:46:27.220Z,96936.94
2023-02-26T10:51:35.489Z,96955.66
2023-02-26T10:56:40.223Z,96951.22
2023-02-26T11:01:44.369Z,96966.34
2023-02-26T11:06:55.137Z,96969.94
2023-02-26T11:12:07.857Z,96960.94
2023-02-26T11:17:15.535Z,96955.31
2023-02-26T11:22:20.076Z,96966.66
2023-02-26T11:27:28.255Z,96962.38
2023-02-26T11:32:33.313Z,96985.19
2023-02-26T11:37:39.544Z,97032.38
2023-02-26T11:42:49.815Z,97033.88
2023-02-26T11:48:14.488Z,97037.16
2023-02-26T11:53:20.561Z,97023.47
2023-02-26T11:58:26.096Z,97026.59
2023-02-26T12:03:33.620Z,97048.22
2023-02-26T12:08:38.780Z,97053.09
2023-02-26T12:13:57.828Z,97051.09
2023-02-26T12:19:07.913Z,97057.88
2023-02-26T12:24:36.867Z,97055.91
2023-02-26T12:30:04.770Z,97067.47
2023-02-26T12:35:31.556Z,97051.44
2023-02-26T12:40:59.556Z,97053.56
2023-02-26T12:46:15.716Z,97051.53
2023-02-26T12:51:31.164Z,97070.94
2023-02-26T12:57:16.133Z,97076.59
2023-02-26T13:02:49.259Z,97096.94
2023-02-26T13:08:03.277Z,97102.97
2023-02-26T13:13:20.213Z,97107.59
2023-02-26T13:18:33.361Z,97134.38
2023-02-26T13:23:41.233Z,97144.75
2023-02-26T13:28:49.041Z,97166.25
2023-02-26T13:33:56.536Z,97173.28
2023-02-26T13:39:16.856Z,97184.47
2023-02-26T13:44:33.315Z,97180.03
2023-02-26T13:49:52.004Z,97190.44
2023-02-26T13:54:55.796Z,97200.72
2023-02-26T14:00:13.012Z,97204.97
2023-02-26T14:05:37.161Z,97221.16
2023-02-26T14:10:48.206Z,97228.88
2023-02-26T14:16:00.891Z,97246.91
2023-02-26T14:21:40.511Z,97241.72
2023-02-26T14:26:48.093Z,97235.78
2023-02-26T14:32:07.008Z,97259.69
2023-02-26T14:37:16.694Z,97266.53
2023-02-26T14:42:23.687Z,97281.88
2023-02-26T14:47:27.958Z,97292.13
2023-02-26T14:53:22.741Z,97305.72
2023-02-26T14:58:40.592Z,97302.34
2023-02-26T15:04:20.152Z,97313.38
2023-02-26T15:09:28.770Z,97316.78
2023-02-26T15:14:58.998Z,97315.13
2023-02-26T15:20:17.357Z,97337.31
2023-02-26T15:25:30.665Z,97344.06
2023-02-26T15:30:36.394Z,97351.69
2023-02-26T15:35:40.180Z,97366.16
2023-02-26T15:40:44.313Z,97368.72
2023-02-26T15:45:50.760Z,97373.03
2023-02-26T15:50:56.421Z,97381.50
2023-02-26T15:56:02.553Z,97392.56
2023-02-26T16:01:15.636Z,97402.00
2023-02-26T16:06:25.603Z,97408.81
2023-02-26T16:11:34.531Z,97427.56
2023-02-26T16:16:43.615Z,97425.78
2023-02-26T16:21:48.257Z,97441.09
2023-02-26T16:26:56.404Z,97417.91
2023-02-26T16:32:04.161Z,97455.34
2023-02-26T16:37:26.392Z,97456.22
2023-02-26T16:42:45.168Z,97474.16
2023-02-26T16:47:55.387Z,97485.34
2023-02-26T16:53:03.172Z,97505.69
2023-02-26T16:58:09.947Z,97510.78
2023-02-26T17:03:17.368Z,97519.31
2023-02-26T17:08:23.888Z,97525.25
2023-02-26T17:13:29.084Z,97529.56
2023-02-26T17:18:34.256Z,97545.69
2023-02-26T17:23:40.013Z,97539.69
2023-02-26T17:28:44.752Z,97547.31
2023-02-26T17:33:51.289Z,97547.31
2023-02-26T17:38:54.828Z,97555.88
2023-02-26T17:43:58.237Z,97568.44
2023-02-26T17:49:03.365Z,97575.38
2023-02-26T17:54:07.015Z,97584.63
2023-02-26T17:59:13.097Z,97580.25
2023-02-26T18:04:18.128Z,97591.47
2023-02-26T18:09:21.590Z,97597.56
2023-02-26T18:14:24.963Z,97603.38
2023-02-26T18:19:29.907Z,97621.38
2023-02-26T18:24:33.707Z,97627.41
2023-02-26T18:29:37.135Z,97631.63
2023-02-26T18:34:42.193Z,97639.28
2023-02-26T18:39:45.793Z,97654.66
2023-02-26T18:44:49.696Z,97669.94
2023-02-26T18:49:54.777Z,97663.06
2023-02-26T18:54:58.132Z,97685.06
2023-02-26T19:00:01.812Z,97680.06
2023-02-26T19:05:10.330Z,97684.41
2023-02-26T19:10:15.227Z,97692.03
2023-02-26T19:15:18.820Z,97707.38
2023-02-26T19:20:23.704Z,97704.59
2023-02-26T19:25:29.232Z,97720.50
2023-02-26T19:30:32.845Z,97723.84
2023-02-26T19:35:38.160Z,97744.88
2023-02-26T19:40:41.459Z,97756.81
2023-02-26T19:45:44.956Z,97758.28
2023-02-26T19:50:51.614Z,97760.06
2023-02-26T19:55:55.393Z,97761.03
2023-02-26T20:00:59.513Z,97779.66
2023-02-26T20:06:04.485Z,97787.25
2023-02-26T20:11:08.559Z,97794.97
2023-02-26T20:16:12.662Z,97807.31
2023-02-26T20:21:17.662Z,97809.34
2023-02-26T20:26:21.269Z,97817.72
2023-02-26T20:31:24.873Z,97821.81
2023-02-26T20:36:29.863Z,97833.91
2023-02-26T20:41:33.330Z,97842.19
2023-02-26T20:46:39.175Z,97859.31
2023-02-26T20:51:44.221Z,97860.59
2023-02-26T20:56:48.924Z,97883.09
2023-02-26T21:01:54.006Z,97900.25
2023-02-26T21:07:12.804Z,97904.56
2023-02-26T21:12:16.737Z,97906.16
2023-02-26T21:17:20.214Z,97916.03
2023-02-26T21:22:25.274Z,97922.88
2023-02-26T21:27:29.055Z,97926.50
2023-02-26T21:32:32.590Z,97950.16
2023-02-26T21:37:38.025Z,97961.13
2023-02-26T21:42:41.512Z,97964.66
2023-02-26T21:47:44.907Z,97977.94
2023-02-26T21:52:49.869Z,97991.81
2023-02-26T21:57:53.133Z,98011.16
2023-02-26T22:02:56.699Z,98022.91
2023-02-26T22:08:01.750Z,98029.88
2023-02-26T22:13:05.238Z,98035.34
2023-02-26T22:18:08.943Z,98042.00
2023-02-26T22:23:13.824Z,98060.09
2023-02-26T22:28:16.881Z,98077.56
2023-02-26T22:33:20.295Z,98091.31
2023-02-26T22:38:25.541Z,98106.53
2023-02-26T22:43:29.081Z,98116.44
2023-02-26T22:48:32.477Z,98123.16
2023-02-26T22:53:37.285Z,98136.50
2023-02-26T22:58:40.575Z,98150.66
2023-02-26T23:03:44.017Z,98147.16
2023-02-26T23:08:49.142Z,98151.34
2023-02-26T23:13:52.559Z,98177.41
2023-02-26T23:18:56.108Z,98162.75
2023-02-26T23:24:01.055Z,98185.75
2023-02-26T23:29:06.482Z,98175.88
2023-02-26T23:34:11.501Z,98206.94
2023-02-26T23:39:16.116Z,98212.91
2023-02-26T23:44:19.795Z,98213.94
2023-02-26T23:49:23.288Z,98233.13
2023-02-26T23:54:28.080Z,98252.38
2023-02-26T23:59:31.310Z,98249.00
